sensor_id;sensor_type;location;lat;lon;timestamp;P1;durP1;ratioP1;P2;durP2;ratioP2
826;SDS011;395;48.132;11.608;2023-07-16T00:02:12;6.27;;;4.90;;
826;SDS011;395;48.132;11.608;2023-07-16T00:04:37;6.23;;;5.30;;
826;SDS011;395;48.132;11.608;2023-07-16T00:07:03;6.97;;;5.90;;
826;SDS011;395;48.132;11.608;2023-07-16T00:09:29;6.63;;;6.00;;
826;SDS011;395;48.132;11.608;2023-07-16T00:11:55;6.17;;;5.33;;
826;SDS011;395;48.132;11.608;2023-07-16T00:14:21;5.87;;;5.37;;
826;SDS011;395;48.132;11.608;2023-07-16T00:16:47;5.60;;;5.10;;
826;SDS011;395;48.132;11.608;2023-07-16T00:19:14;5.97;;;5.20;;
826;SDS011;395;48.132;11.608;2023-07-16T00:21:39;6.00;;;5.07;;
826;SDS011;395;48.132;11.608;2023-07-16T00:24:05;5.70;;;5.10;;
826;SDS011;395;48.132;11.608;2023-07-16T00:26:31;6.30;;;5.40;;
826;SDS011;395;48.132;11.608;2023-07-16T00:28:57;8.93;;;5.60;;
826;SDS011;395;48.132;11.608;2023-07-16T00:31:22;5.00;;;4.60;;
826;SDS011;395;48.132;11.608;2023-07-16T00:33:48;7.67;;;5.40;;
826;SDS011;395;48.132;11.608;2023-07-16T00:36:14;6.30;;;5.70;;
826;SDS011;395;48.132;11.608;2023-07-16T00:38:39;5.37;;;4.97;;
826;SDS011;395;48.132;11.608;2023-07-16T00:41:06;6.23;;;5.63;;
826;SDS011;395;48.132;11.608;2023-07-16T00:43:32;5.20;;;4.70;;
826;SDS011;395;48.132;11.608;2023-07-16T00:45:57;5.67;;;5.10;;
826;SDS011;395;48.132;11.608;2023-07-16T00:48:23;5.70;;;5.20;;
826;SDS011;395;48.132;11.608;2023-07-16T00:50:50;5.30;;;4.80;;
826;SDS011;395;48.132;11.608;2023-07-16T00:53:17;6.07;;;5.33;;
826;SDS011;395;48.132;11.608;2023-07-16T00:55:44;5.30;;;4.80;;
826;SDS011;395;48.132;11.608;2023-07-16T00:58:10;6.47;;;5.27;;
826;SDS011;395;48.132;11.608;2023-07-16T01:00:36;6.17;;;5.57;;
826;SDS011;395;48.132;11.608;2023-07-16T01:03:03;6.10;;;5.50;;
826;SDS011;395;48.132;11.608;2023-07-16T01:05:57;6.30;;;5.70;;
826;SDS011;395;48.132;11.608;2023-07-16T01:08:37;6.40;;;5.80;;
826;SDS011;395;48.132;11.608;2023-07-16T01:11:06;6.37;;;5.77;;
826;SDS011;395;48.132;11.608;2023-07-16T01:13:33;6.93;;;6.33;;
826;SDS011;395;48.132;11.608;2023-07-16T01:16:00;6.90;;;6.20;;
826;SDS011;395;48.132;11.608;2023-07-16T01:18:25;6.50;;;5.90;;
826;SDS011;395;48.132;11.608;2023-07-16T01:20:51;6.67;;;5.93;;
826;SDS011;395;48.132;11.608;2023-07-16T01:31:26;8.13;;;6.90;;
826;SDS011;395;48.132;11.608;2023-07-16T01:33:52;7.07;;;6.10;;
826;SDS011;395;48.132;11.608;2023-07-16T01:36:20;6.70;;;6.10;;
826;SDS011;395;48.132;11.608;2023-07-16T01:38:46;7.03;;;6.33;;
826;SDS011;395;48.132;11.608;2023-07-16T01:41:12;7.47;;;6.10;;
826;SDS011;395;48.132;11.608;2023-07-16T01:43:38;7.03;;;6.33;;
826;SDS011;395;48.132;11.608;2023-07-16T01:46:03;6.77;;;6.27;;
826;SDS011;395;48.132;11.608;2023-07-16T01:48:36;6.60;;;6.00;;
826;SDS011;395;48.132;11.608;2023-07-16T01:51:02;6.63;;;6.03;;
826;SDS011;395;48.132;11.608;2023-07-16T01:53:29;7.67;;;6.73;;
826;SDS011;395;48.132;11.608;2023-07-16T01:55:55;6.50;;;5.90;;
826;SDS011;395;48.132;11.608;2023-07-16T01:58:21;6.93;;;6.23;;
826;SDS011;395;48.132;11.608;2023-07-16T02:00:47;6.93;;;6.33;;
826;SDS011;395;48.132;11.608;2023-07-16T02:03:13;6.53;;;5.77;;
826;SDS011;395;48.132;11.608;2023-07-16T02:05:38;8.23;;;7.17;;
826;SDS011;395;48.132;11.608;2023-07-16T02:08:04;9.43;;;6.50;;
826;SDS011;395;48.132;11.608;2023-07-16T02:10:30;8.63;;;6.57;;
826;SDS011;395;48.132;11.608;2023-07-16T02:12:56;7.60;;;6.90;;
826;SDS011;395;48.132;11.608;2023-07-16T02:15:21;8.70;;;7.23;;
826;SDS011;395;48.132;11.608;2023-07-16T02:17:47;11.40;;;7.13;;
826;SDS011;395;48.132;11.608;2023-07-16T02:20:13;7.83;;;6.53;;
826;SDS011;395;48.132;11.608;2023-07-16T02:22:39;7.97;;;7.07;;
826;SDS011;395;48.132;11.608;2023-07-16T02:25:05;8.30;;;7.50;;
826;SDS011;395;48.132;11.608;2023-07-16T02:27:31;8.00;;;7.20;;
826;SDS011;395;48.132;11.608;2023-07-16T02:29:57;6.97;;;6.20;;
826;SDS011;395;48.132;11.608;2023-07-16T02:32:22;9.93;;;6.33;;
826;SDS011;395;48.132;11.608;2023-07-16T02:34:48;7.60;;;7.00;;
826;SDS011;395;48.132;11.608;2023-07-16T02:37:14;8.30;;;6.53;;
826;SDS011;395;48.132;11.608;2023-07-16T02:39:41;7.43;;;6.80;;
826;SDS011;395;48.132;11.608;2023-07-16T02:42:07;10.60;;;6.93;;
826;SDS011;395;48.132;11.608;2023-07-16T02:44:33;7.87;;;7.17;;
826;SDS011;395;48.132;11.608;2023-07-16T02:46:59;6.80;;;6.20;;
826;SDS011;395;48.132;11.608;2023-07-16T02:49:25;6.43;;;5.87;;
826;SDS011;395;48.132;11.608;2023-07-16T02:51:50;8.50;;;7.03;;
826;SDS011;395;48.132;11.608;2023-07-16T02:54:16;10.70;;;6.80;;
826;SDS011;395;48.132;11.608;2023-07-16T02:56:41;6.27;;;5.77;;
826;SDS011;395;48.132;11.608;2023-07-16T02:59:07;7.10;;;6.30;;
826;SDS011;395;48.132;11.608;2023-07-16T03:01:33;8.07;;;6.30;;
826;SDS011;395;48.132;11.608;2023-07-16T03:03:58;6.87;;;6.30;;
826;SDS011;395;48.132;11.608;2023-07-16T03:06:24;6.13;;;5.63;;
826;SDS011;395;48.132;11.608;2023-07-16T03:08:49;7.07;;;6.40;;
826;SDS011;395;48.132;11.608;2023-07-16T03:11:15;6.80;;;6.10;;
826;SDS011;395;48.132;11.608;2023-07-16T03:13:41;5.80;;;5.40;;
826;SDS011;395;48.132;11.608;2023-07-16T03:16:06;6.10;;;5.50;;
826;SDS011;395;48.132;11.608;2023-07-16T03:18:32;5.93;;;5.43;;
826;SDS011;395;48.132;11.608;2023-07-16T03:20:58;5.70;;;5.20;;
826;SDS011;395;48.132;11.608;2023-07-16T03:23:24;6.93;;;5.20;;
826;SDS011;395;48.132;11.608;2023-07-16T03:25:50;6.87;;;4.57;;
826;SDS011;395;48.132;11.608;2023-07-16T03:28:16;5.83;;;4.20;;
826;SDS011;395;48.132;11.608;2023-07-16T03:30:48;4.10;;;3.60;;
826;SDS011;395;48.132;11.608;2023-07-16T03:33:15;3.63;;;3.33;;
826;SDS011;395;48.132;11.608;2023-07-16T03:35:45;4.00;;;3.60;;
826;SDS011;395;48.132;11.608;2023-07-16T03:38:11;3.77;;;3.47;;
826;SDS011;395;48.132;11.608;2023-07-16T03:40:38;3.67;;;3.37;;
826;SDS011;395;48.132;11.608;2023-07-16T03:43:04;4.13;;;3.83;;
826;SDS011;395;48.132;11.608;2023-07-16T03:45:29;3.97;;;3.67;;
826;SDS011;395;48.132;11.608;2023-07-16T03:47:55;4.17;;;3.83;;
826;SDS011;395;48.132;11.608;2023-07-16T03:50:21;3.77;;;3.40;;
826;SDS011;395;48.132;11.608;2023-07-16T03:52:47;5.27;;;3.90;;
826;SDS011;395;48.132;11.608;2023-07-16T03:55:13;4.20;;;3.90;;
826;SDS011;395;48.132;11.608;2023-07-16T03:57:38;3.97;;;3.60;;
826;SDS011;395;48.132;11.608;2023-07-16T04:00:05;4.70;;;4.27;;
826;SDS011;395;48.132;11.608;2023-07-16T04:02:34;5.43;;;4.10;;
826;SDS011;395;48.132;11.608;2023-07-16T04:05:00;4.63;;;4.23;;
826;SDS011;395;48.132;11.608;2023-07-16T04:07:25;4.20;;;3.90;;
826;SDS011;395;48.132;11.608;2023-07-16T04:09:51;4.83;;;4.13;;
826;SDS011;395;48.132;11.608;2023-07-16T04:12:17;6.70;;;4.47;;
826;SDS011;395;48.132;11.608;2023-07-16T04:14:42;4.20;;;3.90;;
826;SDS011;395;48.132;11.608;2023-07-16T04:17:08;4.90;;;4.50;;
826;SDS011;395;48.132;11.608;2023-07-16T04:19:34;4.50;;;4.20;;
826;SDS011;395;48.132;11.608;2023-07-16T04:22:00;3.13;;;2.80;;
826;SDS011;395;48.132;11.608;2023-07-16T04:24:25;3.67;;;3.37;;
826;SDS011;395;48.132;11.608;2023-07-16T04:26:54;4.27;;;3.30;;
826;SDS011;395;48.132;11.608;2023-07-16T04:29:19;4.20;;;3.90;;
826;SDS011;395;48.132;11.608;2023-07-16T04:31:45;4.27;;;3.77;;
826;SDS011;395;48.132;11.608;2023-07-16T04:34:11;4.23;;;3.80;;
826;SDS011;395;48.132;11.608;2023-07-16T04:36:38;4.43;;;3.70;;
826;SDS011;395;48.132;11.608;2023-07-16T04:39:04;5.30;;;4.80;;
826;SDS011;395;48.132;11.608;2023-07-16T04:41:30;4.70;;;4.20;;
826;SDS011;395;48.132;11.608;2023-07-16T04:43:55;4.67;;;4.27;;
826;SDS011;395;48.132;11.608;2023-07-16T04:46:21;3.93;;;3.43;;
826;SDS011;395;48.132;11.608;2023-07-16T04:48:47;4.80;;;3.60;;
826;SDS011;395;48.132;11.608;2023-07-16T04:51:13;4.53;;;2.90;;
826;SDS011;395;48.132;11.608;2023-07-16T04:53:38;3.13;;;2.93;;
826;SDS011;395;48.132;11.608;2023-07-16T04:56:04;3.47;;;2.70;;
826;SDS011;395;48.132;11.608;2023-07-16T04:58:35;4.10;;;3.00;;
826;SDS011;395;48.132;11.608;2023-07-16T05:01:00;3.10;;;2.90;;
826;SDS011;395;48.132;11.608;2023-07-16T05:03:26;2.77;;;2.20;;
826;SDS011;395;48.132;11.608;2023-07-16T05:05:52;2.43;;;2.23;;
826;SDS011;395;48.132;11.608;2023-07-16T05:08:17;3.30;;;2.40;;
826;SDS011;395;48.132;11.608;2023-07-16T05:10:43;3.20;;;2.40;;
826;SDS011;395;48.132;11.608;2023-07-16T05:13:08;2.23;;;2.03;;
826;SDS011;395;48.132;11.608;2023-07-16T05:15:34;3.00;;;2.53;;
826;SDS011;395;48.132;11.608;2023-07-16T05:18:00;2.70;;;2.20;;
826;SDS011;395;48.132;11.608;2023-07-16T05:20:25;2.70;;;2.50;;
826;SDS011;395;48.132;11.608;2023-07-16T05:22:51;2.57;;;2.37;;
826;SDS011;395;48.132;11.608;2023-07-16T05:25:17;3.00;;;2.50;;
826;SDS011;395;48.132;11.608;2023-07-16T05:27:42;2.37;;;2.13;;
826;SDS011;395;48.132;11.608;2023-07-16T05:30:08;2.50;;;2.30;;
826;SDS011;395;48.132;11.608;2023-07-16T05:32:34;3.13;;;2.83;;
826;SDS011;395;48.132;11.608;2023-07-16T05:35:00;2.67;;;2.47;;
826;SDS011;395;48.132;11.608;2023-07-16T05:37:26;2.27;;;2.17;;
826;SDS011;395;48.132;11.608;2023-07-16T05:39:52;3.07;;;2.67;;
826;SDS011;395;48.132;11.608;2023-07-16T05:42:18;2.77;;;2.57;;
826;SDS011;395;48.132;11.608;2023-07-16T05:44:43;3.23;;;2.43;;
826;SDS011;395;48.132;11.608;2023-07-16T05:47:11;2.40;;;2.20;;
826;SDS011;395;48.132;11.608;2023-07-16T05:49:37;2.10;;;1.90;;
826;SDS011;395;48.132;11.608;2023-07-16T05:52:03;1.77;;;1.67;;
826;SDS011;395;48.132;11.608;2023-07-16T05:54:29;2.37;;;1.80;;
826;SDS011;395;48.132;11.608;2023-07-16T05:56:55;1.97;;;1.87;;
826;SDS011;395;48.132;11.608;2023-07-16T05:59:21;1.33;;;1.23;;
826;SDS011;395;48.132;11.608;2023-07-16T06:01:47;2.10;;;1.87;;
826;SDS011;395;48.132;11.608;2023-07-16T06:04:12;1.90;;;1.77;;
826;SDS011;395;48.132;11.608;2023-07-16T06:06:38;1.67;;;1.57;;
826;SDS011;395;48.132;11.608;2023-07-16T06:09:04;2.67;;;1.80;;
826;SDS011;395;48.132;11.608;2023-07-16T06:11:29;2.27;;;2.10;;
826;SDS011;395;48.132;11.608;2023-07-16T06:13:55;1.93;;;1.80;;
826;SDS011;395;48.132;11.608;2023-07-16T06:16:21;1.80;;;1.53;;
826;SDS011;395;48.132;11.608;2023-07-16T06:18:47;2.00;;;1.90;;
826;SDS011;395;48.132;11.608;2023-07-16T06:21:12;2.40;;;1.70;;
826;SDS011;395;48.132;11.608;2023-07-16T06:23:38;2.03;;;1.80;;
826;SDS011;395;48.132;11.608;2023-07-16T06:26:04;2.80;;;2.37;;
826;SDS011;395;48.132;11.608;2023-07-16T06:28:29;2.43;;;2.20;;
826;SDS011;395;48.132;11.608;2023-07-16T06:30:55;2.97;;;2.60;;
826;SDS011;395;48.132;11.608;2023-07-16T06:33:21;3.03;;;2.80;;
826;SDS011;395;48.132;11.608;2023-07-16T06:35:47;3.57;;;3.17;;
826;SDS011;395;48.132;11.608;2023-07-16T06:38:13;2.67;;;2.37;;
826;SDS011;395;48.132;11.608;2023-07-16T06:40:40;2.83;;;2.43;;
826;SDS011;395;48.132;11.608;2023-07-16T06:43:15;3.50;;;2.80;;
826;SDS011;395;48.132;11.608;2023-07-16T06:45:41;3.37;;;3.07;;
826;SDS011;395;48.132;11.608;2023-07-16T06:48:07;3.07;;;2.87;;
826;SDS011;395;48.132;11.608;2023-07-16T06:50:33;3.53;;;3.13;;
826;SDS011;395;48.132;11.608;2023-07-16T06:52:59;3.67;;;2.97;;
826;SDS011;395;48.132;11.608;2023-07-16T06:55:25;3.10;;;2.80;;
826;SDS011;395;48.132;11.608;2023-07-16T06:57:50;2.93;;;2.73;;
826;SDS011;395;48.132;11.608;2023-07-16T07:00:16;3.33;;;3.10;;
826;SDS011;395;48.132;11.608;2023-07-16T07:02:42;3.60;;;3.00;;
826;SDS011;395;48.132;11.608;2023-07-16T07:05:08;2.97;;;2.60;;
826;SDS011;395;48.132;11.608;2023-07-16T07:07:33;3.33;;;3.03;;
826;SDS011;395;48.132;11.608;2023-07-16T07:09:59;2.90;;;2.70;;
826;SDS011;395;48.132;11.608;2023-07-16T07:12:25;2.33;;;1.93;;
826;SDS011;395;48.132;11.608;2023-07-16T07:14:51;1.90;;;1.60;;
826;SDS011;395;48.132;11.608;2023-07-16T07:17:16;2.83;;;2.63;;
826;SDS011;395;48.132;11.608;2023-07-16T07:19:42;3.07;;;1.93;;
826;SDS011;395;48.132;11.608;2023-07-16T07:22:09;2.30;;;2.10;;
826;SDS011;395;48.132;11.608;2023-07-16T07:24:34;2.03;;;1.70;;
826;SDS011;395;48.132;11.608;2023-07-16T07:27:00;1.47;;;1.37;;
826;SDS011;395;48.132;11.608;2023-07-16T07:29:26;2.40;;;1.80;;
826;SDS011;395;48.132;11.608;2023-07-16T07:31:52;2.07;;;1.80;;
826;SDS011;395;48.132;11.608;2023-07-16T07:34:17;1.70;;;1.60;;
826;SDS011;395;48.132;11.608;2023-07-16T07:36:43;1.50;;;1.40;;
826;SDS011;395;48.132;11.608;2023-07-16T07:39:10;1.60;;;1.50;;
826;SDS011;395;48.132;11.608;2023-07-16T07:41:35;2.30;;;2.07;;
826;SDS011;395;48.132;11.608;2023-07-16T07:44:01;2.00;;;1.67;;
826;SDS011;395;48.132;11.608;2023-07-16T07:46:27;2.00;;;1.83;;
826;SDS011;395;48.132;11.608;2023-07-16T07:48:53;2.47;;;2.07;;
826;SDS011;395;48.132;11.608;2023-07-16T07:51:19;2.30;;;1.63;;
826;SDS011;395;48.132;11.608;2023-07-16T07:53:45;1.87;;;1.77;;
826;SDS011;395;48.132;11.608;2023-07-16T07:56:11;2.33;;;1.70;;
826;SDS011;395;48.132;11.608;2023-07-16T07:58:37;4.27;;;1.93;;
826;SDS011;395;48.132;11.608;2023-07-16T08:01:06;1.97;;;1.77;;
826;SDS011;395;48.132;11.608;2023-07-16T08:03:34;1.93;;;1.83;;
826;SDS011;395;48.132;11.608;2023-07-16T08:06:00;2.40;;;1.37;;
826;SDS011;395;48.132;11.608;2023-07-16T08:08:25;2.07;;;1.73;;
826;SDS011;395;48.132;11.608;2023-07-16T08:10:52;2.90;;;2.00;;
826;SDS011;395;48.132;11.608;2023-07-16T08:13:18;1.83;;;1.67;;
826;SDS011;395;48.132;11.608;2023-07-16T08:15:44;2.43;;;2.00;;
826;SDS011;395;48.132;11.608;2023-07-16T08:18:10;2.03;;;1.60;;
826;SDS011;395;48.132;11.608;2023-07-16T08:20:36;1.90;;;1.80;;
826;SDS011;395;48.132;11.608;2023-07-16T08:23:01;1.97;;;1.87;;
826;SDS011;395;48.132;11.608;2023-07-16T08:25:27;1.43;;;1.33;;
826;SDS011;395;48.132;11.608;2023-07-16T08:27:53;1.40;;;1.30;;
826;SDS011;395;48.132;11.608;2023-07-16T08:30:19;1.90;;;1.53;;
826;SDS011;395;48.132;11.608;2023-07-16T08:32:45;4.50;;;2.00;;
826;SDS011;395;48.132;11.608;2023-07-16T08:35:10;1.90;;;1.70;;
826;SDS011;395;48.132;11.608;2023-07-16T08:37:41;1.83;;;1.73;;
826;SDS011;395;48.132;11.608;2023-07-16T08:40:10;1.57;;;1.47;;
826;SDS011;395;48.132;11.608;2023-07-16T08:42:39;2.00;;;1.80;;
826;SDS011;395;48.132;11.608;2023-07-16T08:45:12;1.97;;;1.87;;
826;SDS011;395;48.132;11.608;2023-07-16T08:47:39;1.67;;;1.50;;
826;SDS011;395;48.132;11.608;2023-07-16T08:50:05;1.73;;;1.63;;
826;SDS011;395;48.132;11.608;2023-07-16T08:52:31;1.77;;;1.67;;
826;SDS011;395;48.132;11.608;2023-07-16T08:54:57;2.20;;;2.07;;
826;SDS011;395;48.132;11.608;2023-07-16T08:57:23;1.73;;;1.50;;
826;SDS011;395;48.132;11.608;2023-07-16T08:59:49;1.60;;;1.50;;
826;SDS011;395;48.132;11.608;2023-07-16T09:02:16;2.57;;;1.50;;
826;SDS011;395;48.132;11.608;2023-07-16T09:04:43;2.57;;;1.37;;
826;SDS011;395;48.132;11.608;2023-07-16T09:07:11;1.50;;;1.40;;
826;SDS011;395;48.132;11.608;2023-07-16T09:09:37;1.37;;;1.27;;
826;SDS011;395;48.132;11.608;2023-07-16T09:12:02;1.50;;;1.40;;
826;SDS011;395;48.132;11.608;2023-07-16T09:14:28;1.50;;;1.40;;
826;SDS011;395;48.132;11.608;2023-07-16T09:16:54;2.47;;;1.47;;
826;SDS011;395;48.132;11.608;2023-07-16T09:19:20;1.63;;;1.50;;
826;SDS011;395;48.132;11.608;2023-07-16T09:21:49;1.80;;;1.50;;
826;SDS011;395;48.132;11.608;2023-07-16T09:24:16;1.47;;;1.37;;
826;SDS011;395;48.132;11.608;2023-07-16T09:26:49;1.40;;;1.30;;
826;SDS011;395;48.132;11.608;2023-07-16T09:29:20;1.93;;;1.43;;
826;SDS011;395;48.132;11.608;2023-07-16T09:34:29;1.70;;;1.60;;
826;SDS011;395;48.132;11.608;2023-07-16T09:36:59;2.23;;;1.80;;
826;SDS011;395;48.132;11.608;2023-07-16T09:39:25;1.70;;;1.60;;
826;SDS011;395;48.132;11.608;2023-07-16T09:41:52;2.10;;;1.67;;
826;SDS011;395;48.132;11.608;2023-07-16T09:44:18;2.20;;;1.80;;
826;SDS011;395;48.132;11.608;2023-07-16T09:46:44;3.90;;;2.03;;
826;SDS011;395;48.132;11.608;2023-07-16T09:49:11;1.73;;;1.63;;
826;SDS011;395;48.132;11.608;2023-07-16T09:51:37;1.60;;;1.50;;
826;SDS011;395;48.132;11.608;2023-07-16T09:54:04;1.60;;;1.50;;
826;SDS011;395;48.132;11.608;2023-07-16T09:56:35;2.30;;;1.90;;
826;SDS011;395;48.132;11.608;2023-07-16T09:59:13;2.07;;;1.87;;
826;SDS011;395;48.132;11.608;2023-07-16T10:01:41;1.77;;;1.67;;
826;SDS011;395;48.132;11.608;2023-07-16T10:04:13;2.33;;;1.90;;
826;SDS011;395;48.132;11.608;2023-07-16T10:06:52;2.00;;;1.90;;
826;SDS011;395;48.132;11.608;2023-07-16T10:12:07;2.30;;;2.10;;
826;SDS011;395;48.132;11.608;2023-07-16T10:14:55;1.90;;;1.80;;
826;SDS011;395;48.132;11.608;2023-07-16T10:17:29;3.40;;;1.70;;
826;SDS011;395;48.132;11.608;2023-07-16T10:20:01;2.40;;;1.87;;
826;SDS011;395;48.132;11.608;2023-07-16T10:27:44;1.90;;;1.80;;
826;SDS011;395;48.132;11.608;2023-07-16T10:30:13;2.20;;;1.90;;
826;SDS011;395;48.132;11.608;2023-07-16T10:32:39;2.10;;;1.90;;
826;SDS011;395;48.132;11.608;2023-07-16T10:35:06;1.50;;;1.40;;
826;SDS011;395;48.132;11.608;2023-07-16T10:37:34;2.20;;;2.00;;
826;SDS011;395;48.132;11.608;2023-07-16T10:40:00;2.97;;;1.97;;
826;SDS011;395;48.132;11.608;2023-07-16T10:42:28;1.70;;;1.60;;
826;SDS011;395;48.132;11.608;2023-07-16T10:44:57;2.00;;;1.87;;
826;SDS011;395;48.132;11.608;2023-07-16T10:47:24;2.70;;;2.50;;
826;SDS011;395;48.132;11.608;2023-07-16T10:49:55;2.27;;;2.00;;
826;SDS011;395;48.132;11.608;2023-07-16T10:52:21;2.00;;;1.80;;
826;SDS011;395;48.132;11.608;2023-07-16T10:54:48;2.40;;;1.87;;
826;SDS011;395;48.132;11.608;2023-07-16T10:57:15;2.50;;;2.30;;
826;SDS011;395;48.132;11.608;2023-07-16T10:59:42;5.10;;;1.90;;
826;SDS011;395;48.132;11.608;2023-07-16T11:02:13;2.00;;;1.63;;
826;SDS011;395;48.132;11.608;2023-07-16T11:04:40;1.87;;;1.70;;
826;SDS011;395;48.132;11.608;2023-07-16T11:07:06;1.60;;;1.47;;
826;SDS011;395;48.132;11.608;2023-07-16T11:09:33;2.30;;;1.93;;
826;SDS011;395;48.132;11.608;2023-07-16T11:12:10;2.47;;;2.27;;
826;SDS011;395;48.132;11.608;2023-07-16T11:14:37;2.10;;;2.00;;
826;SDS011;395;48.132;11.608;2023-07-16T11:17:07;2.17;;;1.70;;
826;SDS011;395;48.132;11.608;2023-07-16T11:19:34;2.40;;;2.20;;
826;SDS011;395;48.132;11.608;2023-07-16T11:22:02;2.43;;;1.90;;
826;SDS011;395;48.132;11.608;2023-07-16T11:24:37;2.47;;;2.03;;
826;SDS011;395;48.132;11.608;2023-07-16T11:27:03;2.03;;;1.93;;
826;SDS011;395;48.132;11.608;2023-07-16T11:29:35;1.90;;;1.70;;
826;SDS011;395;48.132;11.608;2023-07-16T11:32:01;2.40;;;2.27;;
826;SDS011;395;48.132;11.608;2023-07-16T11:34:27;2.20;;;2.00;;
826;SDS011;395;48.132;11.608;2023-07-16T11:36:52;2.23;;;2.10;;
826;SDS011;395;48.132;11.608;2023-07-16T11:39:18;2.30;;;2.10;;
826;SDS011;395;48.132;11.608;2023-07-16T11:41:57;2.10;;;2.00;;
826;SDS011;395;48.132;11.608;2023-07-16T11:44:23;1.90;;;1.80;;
826;SDS011;395;48.132;11.608;2023-07-16T11:46:49;2.00;;;1.90;;
826;SDS011;395;48.132;11.608;2023-07-16T11:49:15;2.17;;;1.90;;
826;SDS011;395;48.132;11.608;2023-07-16T11:51:41;2.80;;;2.33;;
826;SDS011;395;48.132;11.608;2023-07-16T11:54:09;2.03;;;1.90;;
826;SDS011;395;48.132;11.608;2023-07-16T11:56:36;2.50;;;2.30;;
826;SDS011;395;48.132;11.608;2023-07-16T11:59:01;1.87;;;1.77;;
826;SDS011;395;48.132;11.608;2023-07-16T12:01:27;2.30;;;2.10;;
826;SDS011;395;48.132;11.608;2023-07-16T12:03:52;2.80;;;2.43;;
826;SDS011;395;48.132;11.608;2023-07-16T12:06:18;2.60;;;2.40;;
826;SDS011;395;48.132;11.608;2023-07-16T12:08:44;2.53;;;2.33;;
826;SDS011;395;48.132;11.608;2023-07-16T12:11:09;3.67;;;2.60;;
826;SDS011;395;48.132;11.608;2023-07-16T12:13:35;3.10;;;2.70;;
826;SDS011;395;48.132;11.608;2023-07-16T12:16:02;3.47;;;2.20;;
826;SDS011;395;48.132;11.608;2023-07-16T12:18:28;2.63;;;2.43;;
826;SDS011;395;48.132;11.608;2023-07-16T12:20:56;2.70;;;2.30;;
826;SDS011;395;48.132;11.608;2023-07-16T12:23:22;4.90;;;2.67;;
826;SDS011;395;48.132;11.608;2023-07-16T12:25:48;2.93;;;2.30;;
826;SDS011;395;48.132;11.608;2023-07-16T12:28:15;2.17;;;1.97;;
826;SDS011;395;48.132;11.608;2023-07-16T12:30:41;2.57;;;2.37;;
826;SDS011;395;48.132;11.608;2023-07-16T12:33:07;3.90;;;2.40;;
826;SDS011;395;48.132;11.608;2023-07-16T12:35:33;2.30;;;2.20;;
826;SDS011;395;48.132;11.608;2023-07-16T12:37:59;2.70;;;2.50;;
826;SDS011;395;48.132;11.608;2023-07-16T12:40:25;2.53;;;2.20;;
826;SDS011;395;48.132;11.608;2023-07-16T12:42:52;2.27;;;2.10;;
826;SDS011;395;48.132;11.608;2023-07-16T12:45:17;2.80;;;2.60;;
826;SDS011;395;48.132;11.608;2023-07-16T12:47:43;3.37;;;2.50;;
826;SDS011;395;48.132;11.608;2023-07-16T12:50:09;2.77;;;2.57;;
826;SDS011;395;48.132;11.608;2023-07-16T12:52:36;2.67;;;2.47;;
826;SDS011;395;48.132;11.608;2023-07-16T12:55:02;2.80;;;2.60;;
826;SDS011;395;48.132;11.608;2023-07-16T12:57:28;3.53;;;2.60;;
826;SDS011;395;48.132;11.608;2023-07-16T12:59:54;2.93;;;2.60;;
826;SDS011;395;48.132;11.608;2023-07-16T13:02:20;2.93;;;2.73;;
826;SDS011;395;48.132;11.608;2023-07-16T13:04:46;2.57;;;2.37;;
826;SDS011;395;48.132;11.608;2023-07-16T13:07:12;2.80;;;2.60;;
826;SDS011;395;48.132;11.608;2023-07-16T13:09:38;3.10;;;2.63;;
826;SDS011;395;48.132;11.608;2023-07-16T13:12:04;2.77;;;2.57;;
826;SDS011;395;48.132;11.608;2023-07-16T13:14:30;3.10;;;2.90;;
826;SDS011;395;48.132;11.608;2023-07-16T13:16:56;2.30;;;2.20;;
826;SDS011;395;48.132;11.608;2023-07-16T13:19:22;2.87;;;2.67;;
826;SDS011;395;48.132;11.608;2023-07-16T13:21:48;3.17;;;2.93;;
826;SDS011;395;48.132;11.608;2023-07-16T13:24:14;3.00;;;2.80;;
826;SDS011;395;48.132;11.608;2023-07-16T13:26:40;3.07;;;2.50;;
826;SDS011;395;48.132;11.608;2023-07-16T13:29:06;2.97;;;2.77;;
826;SDS011;395;48.132;11.608;2023-07-16T13:31:32;2.63;;;2.43;;
826;SDS011;395;48.132;11.608;2023-07-16T13:33:59;3.03;;;2.73;;
826;SDS011;395;48.132;11.608;2023-07-16T13:36:25;2.97;;;2.67;;
826;SDS011;395;48.132;11.608;2023-07-16T13:38:51;2.90;;;2.70;;
826;SDS011;395;48.132;11.608;2023-07-16T13:41:17;3.30;;;2.80;;
826;SDS011;395;48.132;11.608;2023-07-16T13:43:43;3.03;;;2.67;;
826;SDS011;395;48.132;11.608;2023-07-16T13:46:09;2.60;;;2.40;;
826;SDS011;395;48.132;11.608;2023-07-16T13:48:35;2.93;;;2.60;;
826;SDS011;395;48.132;11.608;2023-07-16T13:51:01;3.20;;;2.90;;
826;SDS011;395;48.132;11.608;2023-07-16T13:53:27;3.30;;;2.80;;
826;SDS011;395;48.132;11.608;2023-07-16T13:55:53;3.30;;;2.53;;
826;SDS011;395;48.132;11.608;2023-07-16T13:58:19;2.80;;;2.60;;
826;SDS011;395;48.132;11.608;2023-07-16T14:00:45;3.03;;;2.83;;
826;SDS011;395;48.132;11.608;2023-07-16T14:03:11;3.00;;;2.80;;
826;SDS011;395;48.132;11.608;2023-07-16T14:05:37;4.17;;;3.03;;
826;SDS011;395;48.132;11.608;2023-07-16T14:08:05;3.03;;;2.80;;
826;SDS011;395;48.132;11.608;2023-07-16T14:10:31;2.90;;;2.70;;
826;SDS011;395;48.132;11.608;2023-07-16T14:12:57;3.03;;;2.83;;
826;SDS011;395;48.132;11.608;2023-07-16T14:15:25;3.27;;;3.07;;
826;SDS011;395;48.132;11.608;2023-07-16T14:17:51;2.83;;;2.33;;
826;SDS011;395;48.132;11.608;2023-07-16T14:20:17;3.00;;;2.80;;
826;SDS011;395;48.132;11.608;2023-07-16T14:22:44;2.80;;;2.60;;
826;SDS011;395;48.132;11.608;2023-07-16T14:25:10;3.30;;;3.10;;
826;SDS011;395;48.132;11.608;2023-07-16T14:27:36;3.10;;;2.90;;
826;SDS011;395;48.132;11.608;2023-07-16T14:30:02;3.40;;;3.10;;
826;SDS011;395;48.132;11.608;2023-07-16T14:32:28;3.30;;;3.10;;
826;SDS011;395;48.132;11.608;2023-07-16T14:34:56;3.83;;;3.17;;
826;SDS011;395;48.132;11.608;2023-07-16T14:37:22;3.23;;;3.00;;
826;SDS011;395;48.132;11.608;2023-07-16T14:39:48;3.10;;;2.90;;
826;SDS011;395;48.132;11.608;2023-07-16T14:42:15;3.20;;;2.90;;
826;SDS011;395;48.132;11.608;2023-07-16T14:44:41;2.90;;;2.70;;
826;SDS011;395;48.132;11.608;2023-07-16T14:47:07;3.00;;;2.80;;
826;SDS011;395;48.132;11.608;2023-07-16T14:49:33;3.33;;;3.03;;
826;SDS011;395;48.132;11.608;2023-07-16T14:51:59;2.90;;;2.70;;
826;SDS011;395;48.132;11.608;2023-07-16T14:54:25;3.33;;;3.00;;
826;SDS011;395;48.132;11.608;2023-07-16T14:56:51;3.43;;;3.13;;
826;SDS011;395;48.132;11.608;2023-07-16T14:59:17;3.17;;;2.87;;
826;SDS011;395;48.132;11.608;2023-07-16T15:01:43;3.20;;;3.00;;
826;SDS011;395;48.132;11.608;2023-07-16T15:04:09;4.00;;;3.70;;
826;SDS011;395;48.132;11.608;2023-07-16T15:06:36;3.13;;;2.93;;
826;SDS011;395;48.132;11.608;2023-07-16T15:09:02;3.93;;;3.53;;
826;SDS011;395;48.132;11.608;2023-07-16T15:11:28;3.00;;;2.80;;
826;SDS011;395;48.132;11.608;2023-07-16T15:13:54;3.20;;;2.90;;
826;SDS011;395;48.132;11.608;2023-07-16T15:16:20;3.40;;;3.10;;
826;SDS011;395;48.132;11.608;2023-07-16T15:18:46;3.20;;;2.50;;
826;SDS011;395;48.132;11.608;2023-07-16T15:21:12;3.30;;;3.10;;
826;SDS011;395;48.132;11.608;2023-07-16T15:23:40;3.20;;;2.90;;
826;SDS011;395;48.132;11.608;2023-07-16T15:26:07;2.80;;;2.60;;
826;SDS011;395;48.132;11.608;2023-07-16T15:28:36;3.13;;;2.80;;
826;SDS011;395;48.132;11.608;2023-07-16T15:31:03;3.00;;;2.80;;
826;SDS011;395;48.132;11.608;2023-07-16T15:33:29;2.53;;;2.33;;
826;SDS011;395;48.132;11.608;2023-07-16T15:35:56;3.20;;;3.00;;
826;SDS011;395;48.132;11.608;2023-07-16T15:38:22;3.10;;;2.90;;
826;SDS011;395;48.132;11.608;2023-07-16T15:40:48;3.40;;;3.10;;
826;SDS011;395;48.132;11.608;2023-07-16T15:43:14;3.20;;;3.00;;
826;SDS011;395;48.132;11.608;2023-07-16T15:45:40;3.20;;;3.00;;